ATMO2: Muddy Boggy Creek at Atoka

Data processed at Fri Mar 09 2018 23:53


All information presented herein is the property of the government of the United States of America and may be revised or deleted at any time without prior notice.
Dissemination of this information without the expressed written consent of the Public Affairs Office, Tulsa District U.S. Army Corps of Engineers is strictly prohibited.
These data are gathered electronically and, as presented, have not undergone any form of quality control. These data are not guaranteed to be valid or correct.
Go to home page.
Go to station list.

Downstream station:


Previous Day
Next Day
Current Day
    
SHEF ID:       ATMO2     Muddy Boggy Creek at Atoka, OK
STATION TYPE:  

               PRECIP     STAGE  RIV-FLOW   VOLTAGE
                   in        ft       cfs      volt
              Ccp-Rev   Ccp-Rev   Ccp-Rev   Ccp-Rev
(US/Central)
03/07 00:00      0.00     15.73       132     12.80
03/07 01:00      0.00     15.71       130     12.80
03/07 02:00      0.00     15.71       130     12.70
03/07 03:00      0.00     15.69       127     12.70
03/07 04:00      0.00     15.69       127     12.60
03/07 05:00      0.00     15.68       126     12.60
03/07 06:00      0.00     15.67       125     12.60
03/07 07:00      0.00     15.66       123     12.80
03/07 08:00      0.00     15.65       120     14.40
03/07 09:00      0.00     15.66       123     14.50
03/07 10:00      0.00     15.65       120     14.40
03/07 11:00      0.00     15.67       125     14.40
03/07 12:00      0.00     15.64       118     14.30
03/07 13:00      0.00     15.60       109     14.30
03/07 14:00      0.00     15.59       107     14.30
03/07 15:00      0.00     15.59       107     14.60
03/07 16:00      0.00     15.59       107     14.50
03/07 17:00      0.00     15.59       107     14.30
03/07 18:00      0.00     15.55        98     13.00
03/07 19:00      0.00     15.57       102     12.90
03/07 20:00      0.00     15.55        98     12.80
03/07 21:00      0.00     15.57       102     12.80
03/07 22:00      0.00     15.54        96     12.80
03/07 23:00      0.00     15.50        89     12.80